Gasburg, Virginia
Current Conditions -  °F | °C
As of 12:15 AM on Tuesday 21 Oct 2014 (Local Time) from KAVC Reporting Station
Overcast Overcast  
Wind Chill: 13°   Ceiling: 10000
Heat Index: 13°   Visibility: 10mi
Dew Point: 11°   Wind: 3mph
Humidity: 88%   Direction: 180°S
Pressure: 30.01"   Gusts: NA
Location:  36.58°N, 77.88°W
Report Text: KAVC 210415Z AUTO 18003KT 10SM OVC100 13/11 A3001 RMK AO2
Loading
Personal Weather Stations






























Interactive Weather Map
Tropical Storm Tracking
New forecast layout! Learn more

10-Day Weather Forecast

Advertisements
Track Severe Weather on mobile